createdAt,value
2023-04-10T00:00:24.122Z,3.50
2023-04-10T00:02:51.498Z,3.40
2023-04-10T00:05:18.508Z,3.40
2023-04-10T00:07:45.179Z,3.40
2023-04-10T00:10:11.875Z,3.30
2023-04-10T00:12:38.645Z,3.30
2023-04-10T00:15:05.828Z,3.30
2023-04-10T00:17:32.518Z,3.30
2023-04-10T00:19:59.641Z,3.30
2023-04-10T00:22:26.619Z,3.30
2023-04-10T00:24:53.537Z,3.20
2023-04-10T00:27:20.250Z,3.20
2023-04-10T00:29:46.945Z,3.20
2023-04-10T00:32:14.009Z,3.20
2023-04-10T00:34:40.775Z,3.10
2023-04-10T00:37:08.158Z,3.10
2023-04-10T00:39:34.923Z,3.10
2023-04-10T00:42:02.247Z,3.10
2023-04-10T00:44:29.031Z,3.10
2023-04-10T00:46:55.936Z,3.10
2023-04-10T00:49:22.733Z,3.00
2023-04-10T00:51:49.676Z,3.00
2023-04-10T00:54:16.800Z,3.00
2023-04-10T00:56:44.915Z,3.00
2023-04-10T00:59:11.610Z,2.90
2023-04-10T01:01:38.557Z,2.90
2023-04-10T01:04:05.850Z,2.90
2023-04-10T01:07:09.072Z,2.90
2023-04-10T01:09:55.884Z,2.90
2023-04-10T01:12:40.690Z,2.90
2023-04-10T01:15:12.732Z,2.80
2023-04-10T01:17:59.667Z,2.80
2023-04-10T01:20:30.991Z,2.70
2023-04-10T01:23:42.144Z,2.70
2023-04-10T01:26:13.901Z,2.70
2023-04-10T01:29:00.561Z,2.70
2023-04-10T01:32:16.361Z,2.70
2023-04-10T01:34:50.983Z,2.60
2023-04-10T01:37:23.543Z,2.60
2023-04-10T01:40:13.467Z,2.60
2023-04-10T01:42:45.511Z,2.60
2023-04-10T01:45:18.225Z,2.60
2023-04-10T01:47:48.055Z,2.60
2023-04-10T01:50:16.085Z,2.60
2023-04-10T01:52:43.562Z,2.60
2023-04-10T01:55:21.064Z,2.50
2023-04-10T01:58:00.076Z,2.50
2023-04-10T02:03:58.492Z,2.50
2023-04-10T02:06:43.440Z,2.50
2023-04-10T02:09:15.848Z,2.50
2023-04-10T02:11:54.884Z,2.50
2023-04-10T02:14:24.433Z,2.40
2023-04-10T02:16:54.866Z,2.40
2023-04-10T02:19:23.991Z,2.30
2023-04-10T02:21:51.834Z,2.30
2023-04-10T02:24:20.646Z,2.30
2023-04-10T02:26:52.579Z,2.30
2023-04-10T02:29:19.502Z,2.30
2023-04-10T02:31:47.134Z,2.30
2023-04-10T02:34:14.438Z,2.30
2023-04-10T02:36:41.209Z,2.30
2023-04-10T02:39:10.247Z,2.30
2023-04-10T02:41:46.515Z,2.30
2023-04-10T02:44:14.156Z,2.20
2023-04-10T02:46:42.014Z,2.10
2023-04-10T02:49:09.072Z,2.10
2023-04-10T02:51:36.492Z,2.10
2023-04-10T02:54:04.511Z,2.10
2023-04-10T02:56:35.013Z,2.10
2023-04-10T02:59:02.131Z,2.10
2023-04-10T03:01:30.063Z,2.00
2023-04-10T03:03:58.353Z,2.00
2023-04-10T03:06:28.768Z,2.00
2023-04-10T03:08:57.223Z,1.90
2023-04-10T03:11:24.032Z,1.90
2023-04-10T03:13:50.796Z,1.80
2023-04-10T03:16:18.633Z,1.80
2023-04-10T03:18:46.331Z,1.80
2023-04-10T03:21:13.077Z,1.80
2023-04-10T03:23:39.781Z,1.80
2023-04-10T03:26:06.684Z,1.70
2023-04-10T03:28:37.730Z,1.70
2023-04-10T03:31:06.118Z,1.70
2023-04-10T03:33:35.523Z,1.70
2023-04-10T03:36:03.705Z,1.70
2023-04-10T03:38:30.580Z,1.70
2023-04-10T03:40:57.264Z,1.70
2023-04-10T03:43:26.106Z,1.70
2023-04-10T03:45:52.974Z,1.70
2023-04-10T03:48:21.061Z,1.70
2023-04-10T03:50:47.895Z,1.60
2023-04-10T03:53:17.104Z,1.60
2023-04-10T03:55:44.731Z,1.60
2023-04-10T03:58:13.082Z,1.50
2023-04-10T04:00:40.286Z,1.60
2023-04-10T04:03:18.266Z,1.60
2023-04-10T04:06:03.515Z,1.60
2023-04-10T04:08:39.755Z,1.60
2023-04-10T04:11:25.777Z,1.70
2023-04-10T04:13:57.423Z,1.60
2023-04-10T04:16:35.802Z,1.60
2023-04-10T04:19:21.172Z,1.60
2023-04-10T04:22:20.972Z,1.60
2023-04-10T04:25:26.074Z,1.60
2023-04-10T04:28:25.172Z,1.60
2023-04-10T04:31:10.420Z,1.60
2023-04-10T04:34:03.305Z,1.60
2023-04-10T04:36:48.474Z,1.60
2023-04-10T04:39:34.003Z,1.50
2023-04-10T04:42:23.919Z,1.50
2023-04-10T04:45:10.033Z,1.50
2023-04-10T04:47:55.530Z,1.50
2023-04-10T04:50:30.589Z,1.50
2023-04-10T04:53:16.920Z,1.50
2023-04-10T04:55:55.168Z,1.50
2023-04-10T04:58:40.725Z,1.50
2023-04-10T05:01:30.990Z,1.50
2023-04-10T05:04:18.138Z,1.50
2023-04-10T05:07:03.321Z,1.50
2023-04-10T05:09:53.410Z,1.50
2023-04-10T05:12:41.923Z,1.50
2023-04-10T05:15:22.647Z,1.60
2023-04-10T05:17:58.205Z,1.60
2023-04-10T05:20:40.475Z,1.70
2023-04-10T05:23:39.685Z,1.70
2023-04-10T05:26:15.591Z,1.70
2023-04-10T05:29:05.547Z,1.70
2023-04-10T05:32:04.788Z,1.80
2023-04-10T05:34:40.239Z,1.90
2023-04-10T05:37:12.956Z,1.90
2023-04-10T05:39:55.584Z,1.90
2023-04-10T05:42:57.691Z,1.90
2023-04-10T05:45:50.756Z,1.90
2023-04-10T05:48:30.227Z,2.00
2023-04-10T05:51:20.232Z,2.00
2023-04-10T05:54:06.161Z,2.00
2023-04-10T05:57:01.879Z,2.10
2023-04-10T05:59:34.733Z,2.20
2023-04-10T06:02:20.608Z,2.20
2023-04-10T06:04:48.417Z,2.20
2023-04-10T06:07:16.120Z,2.30
2023-04-10T06:09:42.882Z,2.30
2023-04-10T06:12:10.501Z,2.40
2023-04-10T06:14:39.587Z,2.40
2023-04-10T06:17:07.156Z,2.50
2023-04-10T06:19:33.904Z,2.60
2023-04-10T06:22:00.605Z,2.60
2023-04-10T06:24:27.349Z,2.70
2023-04-10T06:26:56.828Z,2.70
2023-04-10T06:29:24.266Z,2.70
2023-04-10T06:31:51.370Z,2.80
2023-04-10T06:34:18.524Z,2.90
2023-04-10T06:37:06.331Z,3.10
2023-04-10T06:39:34.111Z,3.40
2023-04-10T06:42:01.310Z,3.60
2023-04-10T06:44:39.326Z,4.00
2023-04-10T06:47:06.858Z,4.40
2023-04-10T06:49:33.582Z,4.70
2023-04-10T06:52:00.225Z,4.90
2023-04-10T06:54:26.889Z,5.20
2023-04-10T06:56:58.592Z,5.50
2023-04-10T06:59:25.593Z,5.70
2023-04-10T07:01:52.309Z,6.00
2023-04-10T07:04:18.958Z,6.20
2023-04-10T07:06:45.780Z,6.40
2023-04-10T07:09:12.529Z,6.70
2023-04-10T07:11:39.168Z,6.80
2023-04-10T07:14:05.846Z,7.10
2023-04-10T07:16:32.786Z,7.30
2023-04-10T07:18:59.556Z,7.40
2023-04-10T07:21:27.213Z,7.60
2023-04-10T07:23:54.116Z,7.80
2023-04-10T07:26:21.060Z,7.90
2023-04-10T07:28:47.990Z,8.00
2023-04-10T07:31:14.663Z,8.10
2023-04-10T07:33:41.677Z,8.30
2023-04-10T07:36:08.762Z,8.30
2023-04-10T07:38:35.651Z,8.50
2023-04-10T07:41:02.409Z,8.60
2023-04-10T07:43:29.409Z,8.80
2023-04-10T07:45:56.684Z,8.90
2023-04-10T07:48:23.609Z,9.10
2023-04-10T07:50:50.324Z,9.30
2023-04-10T07:53:17.051Z,9.40
2023-04-10T07:55:45.469Z,9.50
2023-04-10T07:58:12.157Z,9.60
2023-04-10T08:00:38.864Z,9.50
2023-04-10T08:03:06.496Z,9.80
2023-04-10T08:05:35.381Z,10.00
2023-04-10T08:08:03.624Z,10.20
2023-04-10T08:10:30.412Z,10.70
2023-04-10T08:12:57.126Z,11.20
2023-04-10T08:15:23.879Z,11.70
2023-04-10T08:17:50.735Z,12.20
2023-04-10T08:20:17.482Z,12.50
2023-04-10T08:22:44.165Z,12.90
2023-04-10T08:25:10.939Z,13.00
2023-04-10T08:27:38.012Z,13.30
2023-04-10T08:30:05.381Z,13.50
2023-04-10T08:32:32.211Z,13.70
2023-04-10T08:34:59.040Z,13.90
2023-04-10T08:37:26.928Z,14.10
2023-04-10T08:39:53.924Z,14.20
2023-04-10T08:42:20.838Z,14.20
2023-04-10T08:44:49.436Z,14.30
2023-04-10T08:47:21.330Z,14.40
2023-04-10T08:50:03.236Z,14.50
2023-04-10T08:52:31.737Z,14.70
2023-04-10T08:55:01.352Z,14.90
2023-04-10T08:57:29.024Z,15.00
2023-04-10T08:59:56.033Z,15.00
2023-04-10T09:02:22.915Z,15.10
2023-04-10T09:04:52.146Z,15.20
2023-04-10T09:07:19.055Z,15.20
2023-04-10T09:09:45.910Z,15.20
2023-04-10T09:12:14.285Z,15.30
2023-04-10T09:14:42.697Z,15.40
2023-04-10T09:17:23.904Z,15.60
2023-04-10T09:19:53.924Z,16.00
2023-04-10T09:22:32.670Z,16.20
2023-04-10T09:25:00.663Z,16.40
2023-04-10T09:27:28.656Z,16.50
2023-04-10T09:29:55.368Z,16.50
2023-04-10T09:32:44.802Z,16.60
2023-04-10T09:35:13.559Z,16.60
2023-04-10T09:37:42.353Z,16.70
2023-04-10T09:40:25.460Z,16.90
2023-04-10T09:42:52.753Z,17.30
2023-04-10T09:45:20.571Z,17.50
2023-04-10T09:48:03.667Z,17.60
2023-04-10T09:50:39.610Z,17.60
2023-04-10T09:53:11.256Z,17.70
2023-04-10T09:55:38.624Z,17.80
2023-04-10T09:58:06.577Z,17.70
2023-04-10T10:00:42.143Z,17.70
2023-04-10T10:03:11.604Z,17.60
2023-04-10T10:05:41.174Z,17.60
2023-04-10T10:08:10.707Z,17.80
2023-04-10T10:11:02.618Z,17.90
2023-04-10T10:13:46.003Z,17.90
2023-04-10T10:16:26.630Z,18.00
2023-04-10T10:19:09.010Z,18.10
2023-04-10T10:21:36.725Z,18.60
2023-04-10T10:24:07.297Z,18.50
2023-04-10T10:26:36.040Z,18.70
2023-04-10T10:29:10.663Z,18.80
2023-04-10T10:31:38.158Z,18.90
2023-04-10T10:34:07.482Z,18.90
2023-04-10T10:36:37.996Z,19.10
2023-04-10T10:39:39.129Z,19.00
2023-04-10T10:42:25.378Z,19.10
2023-04-10T10:45:09.616Z,19.10
2023-04-10T10:47:42.483Z,19.30
2023-04-10T10:50:09.433Z,19.30
2023-04-10T10:52:45.852Z,19.20
2023-04-10T10:55:24.741Z,19.50
2023-04-10T10:57:53.479Z,19.80
2023-04-10T11:00:25.301Z,20.00
2023-04-10T11:03:27.456Z,20.30
2023-04-10T11:05:55.413Z,20.40
2023-04-10T11:08:47.159Z,20.40
2023-04-10T11:11:16.422Z,20.50
2023-04-10T11:14:05.844Z,20.70
2023-04-10T11:16:34.083Z,20.50
2023-04-10T11:19:13.255Z,20.50
2023-04-10T11:22:00.366Z,20.60
2023-04-10T11:24:27.077Z,20.50
2023-04-10T11:26:53.912Z,20.40
2023-04-10T11:29:40.792Z,20.30
2023-04-10T11:32:08.221Z,20.40
2023-04-10T11:34:43.484Z,20.40
2023-04-10T11:37:10.260Z,20.20
2023-04-10T11:39:36.911Z,19.90
2023-04-10T11:42:04.793Z,19.80
2023-04-10T11:44:36.731Z,19.70
2023-04-10T11:47:03.467Z,19.80
2023-04-10T11:49:32.772Z,19.80
2023-04-10T11:51:59.499Z,19.70
2023-04-10T11:54:27.981Z,19.80
2023-04-10T11:57:02.346Z,19.80
2023-04-10T11:59:30.741Z,19.60
2023-04-10T12:02:10.508Z,19.50
2023-04-10T12:04:37.855Z,19.50
2023-04-10T12:07:04.775Z,19.40
2023-04-10T12:09:31.695Z,19.20
2023-04-10T12:12:04.074Z,19.00
2023-04-10T12:14:35.354Z,18.80
2023-04-10T12:17:03.500Z,18.60
2023-04-10T12:19:30.936Z,18.40
2023-04-10T12:21:59.298Z,18.10
2023-04-10T12:24:48.340Z,17.90
2023-04-10T12:27:28.596Z,17.70
2023-04-10T12:29:56.968Z,17.50
2023-04-10T12:32:27.275Z,17.30
2023-04-10T12:34:59.010Z,17.10
2023-04-10T12:37:46.528Z,17.00
2023-04-10T12:40:13.913Z,17.00
2023-04-10T12:42:42.128Z,16.80
2023-04-10T12:45:10.148Z,16.70
2023-04-10T12:47:48.548Z,16.50
2023-04-10T12:50:16.913Z,16.50
2023-04-10T12:52:45.853Z,16.50
2023-04-10T12:55:17.949Z,16.50
2023-04-10T12:57:46.920Z,16.40
2023-04-10T13:00:17.000Z,16.40
2023-04-10T13:02:44.681Z,16.50
2023-04-10T13:05:11.778Z,16.50
2023-04-10T13:07:39.359Z,16.50
2023-04-10T13:10:07.176Z,16.50
2023-04-10T13:12:34.911Z,16.50
2023-04-10T13:15:02.760Z,16.50
2023-04-10T13:17:29.704Z,16.60
2023-04-10T13:19:56.410Z,16.60
2023-04-10T13:22:23.049Z,16.60
2023-04-10T13:24:49.764Z,16.60
2023-04-10T13:27:16.450Z,16.50
2023-04-10T13:29:43.394Z,16.40
2023-04-10T13:32:10.749Z,16.50
2023-04-10T13:34:37.621Z,16.50
2023-04-10T13:37:04.436Z,16.40
2023-04-10T13:39:31.623Z,16.40
2023-04-10T13:41:59.175Z,16.50
2023-04-10T13:44:25.969Z,16.50
2023-04-10T13:46:52.831Z,16.50
2023-04-10T13:49:20.418Z,16.50
2023-04-10T13:51:47.786Z,16.50
2023-04-10T13:54:17.262Z,16.50
2023-04-10T13:56:47.131Z,16.50
2023-04-10T13:59:14.312Z,16.50
2023-04-10T14:01:41.142Z,16.40
2023-04-10T14:04:08.359Z,16.40
2023-04-10T14:06:35.252Z,16.40
2023-04-10T14:09:01.985Z,16.40
2023-04-10T14:11:28.672Z,16.30
2023-04-10T14:13:55.475Z,16.20
2023-04-10T14:16:22.261Z,16.20
2023-04-10T14:18:48.968Z,16.10
2023-04-10T14:21:15.649Z,16.20
2023-04-10T14:23:42.971Z,16.10
2023-04-10T14:26:09.642Z,16.20
2023-04-10T14:28:36.568Z,16.20
2023-04-10T14:31:04.769Z,16.10
2023-04-10T14:33:31.553Z,16.10
2023-04-10T14:35:58.261Z,16.10
2023-04-10T14:38:24.941Z,16.10
2023-04-10T14:40:51.886Z,16.00
2023-04-10T14:43:19.481Z,16.00
2023-04-10T14:45:46.332Z,15.90
2023-04-10T14:48:13.469Z,15.90
2023-04-10T14:50:40.374Z,15.90
2023-04-10T14:53:09.599Z,15.90
2023-04-10T14:55:37.103Z,15.90
2023-04-10T14:58:04.338Z,16.00
2023-04-10T15:00:32.255Z,16.00
2023-04-10T15:02:59.142Z,16.00
2023-04-10T15:05:26.568Z,16.00
2023-04-10T15:07:53.746Z,16.10
2023-04-10T15:10:20.662Z,16.10
2023-04-10T15:12:47.372Z,16.10
2023-04-10T15:15:14.049Z,16.10
2023-04-10T15:17:41.267Z,16.20
2023-04-10T15:20:08.297Z,16.20
2023-04-10T15:22:35.845Z,16.30
2023-04-10T15:25:02.829Z,16.30
2023-04-10T15:27:29.518Z,16.40
2023-04-10T15:29:56.231Z,16.40
2023-04-10T15:32:22.985Z,16.40
2023-04-10T15:34:49.765Z,16.50
2023-04-10T15:37:16.409Z,16.40
2023-04-10T15:39:43.054Z,16.40
2023-04-10T15:42:09.811Z,16.50
2023-04-10T15:44:36.503Z,16.50
2023-04-10T15:47:03.333Z,16.30
2023-04-10T15:49:37.873Z,16.30
2023-04-10T15:52:08.342Z,16.30
2023-04-10T15:54:35.284Z,16.30
2023-04-10T15:57:02.744Z,16.30
2023-04-10T15:59:29.721Z,16.30
2023-04-10T16:01:56.583Z,16.20
2023-04-10T16:04:23.894Z,16.20
2023-04-10T16:06:51.098Z,16.20
2023-04-10T16:11:47.926Z,16.20
2023-04-10T16:14:14.654Z,16.20
2023-04-10T16:16:41.398Z,16.20
2023-04-10T16:19:08.074Z,16.10
2023-04-10T16:21:34.871Z,16.10
2023-04-10T16:24:01.518Z,16.10
2023-04-10T16:26:28.203Z,16.10
2023-04-10T16:28:54.967Z,16.10
2023-04-10T16:31:21.827Z,16.10
2023-04-10T16:33:48.557Z,16.20
2023-04-10T16:36:15.487Z,16.20
2023-04-10T16:38:42.145Z,16.20
2023-04-10T16:41:09.975Z,16.20
2023-04-10T16:43:36.656Z,16.20
2023-04-10T16:46:03.449Z,16.10
2023-04-10T16:48:30.348Z,16.10
2023-04-10T16:51:04.639Z,16.10
2023-04-10T16:53:32.283Z,16.00
2023-04-10T16:56:00.947Z,16.00
2023-04-10T16:58:29.635Z,15.90
2023-04-10T17:00:56.413Z,15.90
2023-04-10T17:03:23.071Z,15.90
2023-04-10T17:05:49.928Z,15.80
2023-04-10T17:08:16.598Z,15.80
2023-04-10T17:10:43.275Z,15.70
2023-04-10T17:13:09.923Z,15.70
2023-04-10T17:15:36.552Z,15.60
2023-04-10T17:18:03.361Z,15.60
2023-04-10T17:20:30.833Z,15.60
2023-04-10T17:22:57.547Z,15.50
2023-04-10T17:25:24.253Z,15.50
2023-04-10T17:27:51.027Z,15.40
2023-04-10T17:30:17.709Z,15.30
2023-04-10T17:32:44.437Z,15.30
2023-04-10T17:35:11.095Z,15.30
2023-04-10T17:37:37.719Z,15.20
2023-04-10T17:40:04.664Z,15.20
2023-04-10T17:42:31.292Z,15.10
2023-04-10T17:44:58.470Z,15.00
2023-04-10T17:47:25.254Z,15.00
2023-04-10T17:49:52.011Z,14.90
2023-04-10T17:52:18.674Z,14.80
2023-04-10T17:54:45.322Z,14.70
2023-04-10T17:57:12.012Z,14.70
2023-04-10T17:59:38.703Z,14.60
2023-04-10T18:02:05.528Z,14.50
2023-04-10T18:04:32.355Z,14.40
2023-04-10T18:06:59.011Z,14.30
2023-04-10T18:09:25.642Z,14.20
2023-04-10T18:11:52.371Z,14.20
2023-04-10T18:14:19.597Z,14.10
2023-04-10T18:16:46.426Z,14.00
2023-04-10T18:19:13.180Z,13.80
2023-04-10T18:21:41.995Z,13.70
2023-04-10T18:24:13.782Z,13.60
2023-04-10T18:26:40.736Z,13.40
2023-04-10T18:29:07.864Z,13.20
2023-04-10T18:31:34.553Z,13.00
2023-04-10T18:34:07.855Z,12.90
2023-04-10T18:36:35.496Z,12.60
2023-04-10T18:39:02.241Z,12.50
2023-04-10T18:41:28.961Z,12.50
2023-04-10T18:44:04.192Z,12.40
2023-04-10T18:46:32.385Z,12.30
2023-04-10T18:49:00.874Z,12.20
2023-04-10T18:51:28.050Z,12.10
2023-04-10T18:53:55.021Z,12.00
2023-04-10T18:56:21.972Z,12.00
2023-04-10T18:58:50.173Z,11.80
2023-04-10T19:01:19.910Z,11.80
2023-04-10T19:03:49.980Z,11.70
2023-04-10T19:06:23.689Z,11.50
2023-04-10T19:08:51.279Z,11.50
2023-04-10T19:11:18.631Z,11.40
2023-04-10T19:13:45.467Z,11.40
2023-04-10T19:16:19.051Z,11.30
2023-04-10T19:18:49.128Z,11.30
2023-04-10T19:21:15.948Z,11.30
2023-04-10T19:23:46.397Z,11.30
2023-04-10T19:26:13.046Z,11.30
2023-04-10T19:28:39.704Z,11.20
2023-04-10T19:31:06.599Z,11.20
2023-04-10T19:33:33.287Z,11.20
2023-04-10T19:36:00.000Z,11.20
2023-04-10T19:38:27.536Z,11.20
2023-04-10T19:40:54.736Z,11.30
2023-04-10T19:43:21.643Z,11.20
2023-04-10T19:45:48.344Z,11.20
2023-04-10T19:48:16.098Z,11.10
2023-04-10T19:50:42.804Z,11.10
2023-04-10T19:53:12.778Z,11.00
2023-04-10T19:55:40.827Z,11.00
2023-04-10T19:58:13.350Z,11.10
2023-04-10T20:00:47.806Z,11.00
2023-04-10T20:03:15.987Z,10.90
2023-04-10T20:05:42.932Z,10.80
2023-04-10T20:08:09.668Z,10.90
2023-04-10T20:10:36.352Z,10.80
2023-04-10T20:13:03.030Z,10.80
2023-04-10T20:15:29.681Z,10.90
2023-04-10T20:17:56.369Z,11.00
2023-04-10T20:20:23.083Z,11.00
2023-04-10T20:22:49.737Z,11.00
2023-04-10T20:25:16.419Z,11.00
2023-04-10T20:27:43.049Z,11.10
2023-04-10T20:30:10.063Z,11.20
2023-04-10T20:32:37.052Z,11.30
2023-04-10T20:35:03.956Z,11.40
2023-04-10T20:37:30.668Z,11.50
2023-04-10T20:39:57.444Z,11.60
2023-04-10T20:42:24.149Z,11.70
2023-04-10T20:44:50.842Z,11.70
2023-04-10T20:47:17.471Z,11.70
2023-04-10T20:49:44.117Z,11.70
2023-04-10T20:52:10.861Z,11.80
2023-04-10T20:54:37.572Z,11.90
2023-04-10T20:57:05.876Z,12.00
2023-04-10T20:59:33.090Z,12.10
2023-04-10T21:01:59.851Z,12.20
2023-04-10T21:04:26.695Z,12.30
2023-04-10T21:06:53.607Z,12.40
2023-04-10T21:09:20.551Z,12.40
2023-04-10T21:11:47.311Z,12.40
2023-04-10T21:14:14.013Z,12.40
2023-04-10T21:16:42.479Z,12.50
2023-04-10T21:19:09.659Z,12.40
2023-04-10T21:21:36.369Z,12.50
2023-04-10T21:24:03.245Z,12.50
2023-04-10T21:26:29.856Z,12.40
2023-04-10T21:28:56.528Z,12.50
2023-04-10T21:31:23.172Z,12.40
2023-04-10T21:33:49.847Z,12.40
2023-04-10T21:36:16.636Z,12.40
2023-04-10T21:38:43.342Z,12.40
2023-04-10T21:41:10.073Z,12.50
2023-04-10T21:43:38.415Z,12.50
2023-04-10T21:46:06.098Z,12.50
2023-04-10T21:48:32.897Z,12.50
2023-04-10T21:50:59.730Z,12.50
2023-04-10T21:53:26.376Z,12.50
2023-04-10T21:55:53.003Z,12.50
2023-04-10T21:58:19.693Z,12.50
2023-04-10T22:00:47.410Z,12.60
2023-04-10T22:03:20.073Z,12.60
2023-04-10T22:05:48.773Z,12.60
2023-04-10T22:08:15.960Z,12.60
2023-04-10T22:10:45.242Z,12.60
2023-04-10T22:13:19.757Z,12.60
2023-04-10T22:15:54.537Z,12.60
2023-04-10T22:18:21.360Z,12.60
2023-04-10T22:20:47.991Z,12.60
2023-04-10T22:23:14.666Z,12.60
2023-04-10T22:25:41.314Z,12.60
2023-04-10T22:28:07.994Z,12.50
2023-04-10T22:30:35.448Z,12.50
2023-04-10T22:33:02.271Z,12.50
2023-04-10T22:35:29.238Z,12.50
2023-04-10T22:37:56.976Z,12.50
2023-04-10T22:40:23.701Z,12.60
2023-04-10T22:42:50.625Z,12.60
2023-04-10T22:45:17.313Z,12.60
2023-04-10T22:47:44.047Z,12.60
2023-04-10T22:50:10.862Z,12.60
2023-04-10T22:52:37.900Z,12.50
2023-04-10T22:55:06.874Z,12.60
2023-04-10T22:57:33.859Z,12.50
2023-04-10T23:00:00.932Z,12.40
2023-04-10T23:02:27.984Z,12.40
2023-04-10T23:04:55.243Z,12.30
2023-04-10T23:07:21.897Z,12.30
2023-04-10T23:09:48.537Z,12.30
2023-04-10T23:12:15.195Z,12.30
2023-04-10T23:14:41.917Z,12.30
2023-04-10T23:17:08.535Z,12.30
2023-04-10T23:19:35.224Z,12.30
2023-04-10T23:22:01.871Z,12.30
2023-04-10T23:24:28.549Z,12.20
2023-04-10T23:26:55.256Z,12.20
2023-04-10T23:29:21.890Z,12.20
2023-04-10T23:31:48.666Z,12.20
2023-04-10T23:34:15.439Z,12.30
2023-04-10T23:36:42.204Z,12.30
2023-04-10T23:39:08.908Z,12.30
2023-04-10T23:41:35.586Z,12.30
2023-04-10T23:44:02.270Z,12.30
2023-04-10T23:46:28.968Z,12.30
2023-04-10T23:48:56.651Z,12.30
2023-04-10T23:51:23.292Z,12.40
2023-04-10T23:53:50.044Z,12.30
2023-04-10T23:56:16.800Z,12.30
2023-04-10T23:58:43.473Z,12.40
